PWSweather.com
Personal Weather Stations
Station Observations
LOBIOS
Galicia, LobiosES

GaliciaLobiosES

Lat: 41.895, Lon: -8.091667

Elevation: 1597

Station Type: Automática/Davis Vantage Pro2 Plus

Latest ConditionsUpdated 7:30:01 AM GMT+01:01 Friday, May 24, 2019
Currently Today's Max Today's Min Today's Average
Temperature 52.2°F11.2°C 54.8°F12.7°C 47.9°F8.8°C 51.5°F10.8°C
Dew Point 45.9°F7.7°C 47.7°F8.7°C 43.9°F6.6°C 45.6°F7.6°C
Winds 10.4 mph ENE16.7 kmh ENE 18.4 mph -29.6 kmh - - 8.1 mph 13.0 kmh
Wind Gusts 15.0 mph24.1 kmh 25.3 mph40.7 kmh - -
Humidity 79% 86% 73% 80%
Pressure 30.15 in1021.0 mb 30.16 in1021.3 mb 30.14 in1020.7 mb -
Hour Temp Dew Point Humidity Winds Wind Gusts Pressure Precip Precip Rate Daily Precip Total
07:30 AM 52.2°F11.2°C 45.9°F7.7°C 79% 10.4 mph ENE16.7 kmh ENE 15.0 mph24.1 kmh 30.15 in1021.0 mb - 0.00 in0.0 mm 0.00 in0.0 mm
07:20 AM 51.7°F10.9°C 45.7°F7.6°C 80% 8.1 mph ENE13.0 kmh ENE 13.8 mph22.2 kmh 30.15 in1021.0 mb - 0.00 in0.0 mm 0.00 in0.0 mm
07:10 AM 51.0°F10.6°C 45.7°F7.6°C 82% 9.2 mph ENE14.8 kmh ENE 11.5 mph18.5 kmh 30.15 in1021.0 mb - 0.00 in0.0 mm 0.00 in0.0 mm
07:00 AM 50.3°F10.2°C 45.7°F7.6°C 84% 8.1 mph ENE13.0 kmh ENE 11.5 mph18.5 kmh 30.16 in1021.3 mb - 0.00 in0.0 mm 0.00 in0.0 mm
06:50 AM 49.7°F9.8°C 45.3°F7.4°C 85% 8.1 mph ENE13.0 kmh ENE 10.4 mph16.7 kmh 30.16 in1021.3 mb - 0.00 in0.0 mm 0.00 in0.0 mm
06:40 AM 48.9°F9.4°C 44.9°F7.2°C 86% 8.1 mph ENE13.0 kmh ENE 11.5 mph18.5 kmh 30.15 in1021.0 mb - 0.00 in0.0 mm 0.00 in0.0 mm
06:20 AM 47.9°F8.8°C 43.9°F6.6°C 86% 4.6 mph NE7.4 kmh NE 9.2 mph14.8 kmh 30.15 in1021.0 mb - 0.00 in0.0 mm 0.00 in0.0 mm
06:10 AM 48.1°F8.9°C 44.1°F6.7°C 86% 2.3 mph NE3.7 kmh NE 4.6 mph7.4 kmh 30.15 in1021.0 mb - 0.00 in0.0 mm 0.00 in0.0 mm
05:50 AM 48.4°F9.1°C 44.1°F6.7°C 85% 3.5 mph NE5.6 kmh NE 4.6 mph7.4 kmh 30.14 in1020.7 mb - 0.00 in0.0 mm 0.00 in0.0 mm
05:40 AM 48.5°F9.2°C 44.2°F6.8°C 85% 5.8 mph NE9.3 kmh NE 5.8 mph9.3 kmh 30.14 in1020.7 mb - 0.00 in0.0 mm 0.00 in0.0 mm
05:30 AM 48.5°F9.2°C 44.2°F6.8°C 85% 4.6 mph ENE7.4 kmh ENE 4.6 mph7.4 kmh 30.14 in1020.7 mb - 0.00 in0.0 mm 0.00 in0.0 mm
05:20 AM 48.6°F9.2°C 44.0°F6.7°C 84% 3.5 mph ENE5.6 kmh ENE 6.9 mph11.1 kmh 30.14 in1020.7 mb - 0.00 in0.0 mm 0.00 in0.0 mm
05:10 AM 48.8°F9.3°C 44.2°F6.8°C 84% 3.5 mph ENE5.6 kmh ENE 4.6 mph7.4 kmh 30.14 in1020.7 mb - 0.00 in0.0 mm 0.00 in0.0 mm
04:50 AM 49.6°F9.8°C 44.6°F7.0°C 83% 4.6 mph ENE7.4 kmh ENE 8.1 mph13.0 kmh 30.14 in1020.7 mb - 0.00 in0.0 mm 0.00 in0.0 mm
04:30 AM 50.6°F10.3°C 45.0°F7.2°C 81% 5.8 mph NE9.3 kmh NE 6.9 mph11.1 kmh 30.14 in1020.7 mb - 0.00 in0.0 mm 0.00 in0.0 mm
04:20 AM 51.1°F10.6°C 45.4°F7.4°C 81% 6.9 mph ENE11.1 kmh ENE 9.2 mph14.8 kmh 30.14 in1020.7 mb - 0.00 in0.0 mm 0.00 in0.0 mm
04:10 AM 51.4°F10.8°C 45.8°F7.7°C 81% 9.2 mph ENE14.8 kmh ENE 12.7 mph20.4 kmh 30.14 in1020.7 mb - 0.00 in0.0 mm 0.00 in0.0 mm
04:00 AM 51.7°F10.9°C 45.7°F7.6°C 80% 8.1 mph NE13.0 kmh NE 13.8 mph22.2 kmh 30.14 in1020.7 mb - 0.00 in0.0 mm 0.00 in0.0 mm
03:50 AM 51.8°F11.0°C 46.1°F7.8°C 81% 9.2 mph ENE14.8 kmh ENE 12.7 mph20.4 kmh 30.14 in1020.7 mb - 0.00 in0.0 mm 0.00 in0.0 mm
03:40 AM 51.7°F10.9°C 46.1°F7.8°C 81% 10.4 mph E16.7 kmh E 21.9 mph35.2 kmh 30.14 in1020.7 mb - 0.00 in0.0 mm 0.00 in0.0 mm
03:30 AM 51.7°F10.9°C 46.0°F7.8°C 81% 12.7 mph ENE20.4 kmh ENE 24.2 mph38.9 kmh 30.14 in1020.7 mb - 0.00 in0.0 mm 0.00 in0.0 mm
03:20 AM 51.7°F10.9°C 46.1°F7.8°C 81% 15.0 mph E24.1 kmh E 21.9 mph35.2 kmh 30.14 in1020.7 mb - 0.00 in0.0 mm 0.00 in0.0 mm
03:10 AM 51.9°F11.1°C 45.9°F7.7°C 80% 11.5 mph E18.5 kmh E 15.0 mph24.1 kmh 30.14 in1020.7 mb - 0.00 in0.0 mm 0.00 in0.0 mm
03:00 AM 51.8°F11.0°C 45.8°F7.7°C 80% 16.1 mph ENE25.9 kmh ENE 23.0 mph37.0 kmh 30.14 in1020.7 mb - 0.00 in0.0 mm 0.00 in0.0 mm
02:50 AM 51.8°F11.0°C 45.8°F7.7°C 80% 18.4 mph E29.6 kmh E 25.3 mph40.7 kmh 30.14 in1020.7 mb - 0.00 in0.0 mm 0.00 in0.0 mm
02:40 AM 51.9°F11.1°C 45.6°F7.6°C 79% 10.4 mph E16.7 kmh E 13.8 mph22.2 kmh 30.14 in1020.7 mb - 0.00 in0.0 mm 0.00 in0.0 mm
02:20 AM 52.3°F11.3°C 46.0°F7.8°C 79% 6.9 mph E11.1 kmh E 11.5 mph18.5 kmh 30.14 in1020.7 mb - 0.00 in0.0 mm 0.00 in0.0 mm
02:10 AM 52.3°F11.3°C 46.0°F7.8°C 79% 11.5 mph E18.5 kmh E 15.0 mph24.1 kmh 30.14 in1020.7 mb - 0.00 in0.0 mm 0.00 in0.0 mm
02:00 AM 52.4°F11.3°C 46.1°F7.8°C 79% 6.9 mph ESE11.1 kmh ESE 6.9 mph11.1 kmh 30.15 in1021.0 mb - 0.00 in0.0 mm 0.00 in0.0 mm
01:40 AM 52.8°F11.6°C 46.1°F7.8°C 78% 6.9 mph E11.1 kmh E 11.5 mph18.5 kmh 30.15 in1021.0 mb - 0.00 in0.0 mm 0.00 in0.0 mm
01:30 AM 53.0°F11.7°C 46.0°F7.8°C 77% 6.9 mph E11.1 kmh E 13.8 mph22.2 kmh 30.15 in1021.0 mb - 0.00 in0.0 mm 0.00 in0.0 mm
01:20 AM 53.3°F11.8°C 46.3°F7.9°C 77% 10.4 mph E16.7 kmh E 11.5 mph18.5 kmh 30.16 in1021.3 mb - 0.00 in0.0 mm 0.00 in0.0 mm
01:10 AM 53.5°F11.9°C 46.1°F7.8°C 76% 6.9 mph ENE11.1 kmh ENE 8.1 mph13.0 kmh 30.16 in1021.3 mb - 0.00 in0.0 mm 0.00 in0.0 mm
01:00 AM 53.7°F12.1°C 46.3°F7.9°C 76% 8.1 mph ENE13.0 kmh ENE 9.2 mph14.8 kmh 30.15 in1021.0 mb - 0.00 in0.0 mm 0.00 in0.0 mm
12:50 AM 54.0°F12.2°C 45.9°F7.7°C 74% 5.8 mph E9.3 kmh E 10.4 mph16.7 kmh 30.15 in1021.0 mb - 0.00 in0.0 mm 0.00 in0.0 mm
12:30 AM 54.3°F12.4°C 45.8°F7.7°C 73% 4.6 mph ENE7.4 kmh ENE 5.8 mph9.3 kmh 30.16 in1021.3 mb - 0.00 in0.0 mm 0.00 in0.0 mm
12:20 AM 54.4°F12.4°C 46.3°F7.9°C 74% 8.1 mph ENE13.0 kmh ENE 9.2 mph14.8 kmh 30.16 in1021.3 mb - 0.00 in0.0 mm 0.00 in0.0 mm
12:10 AM 54.5°F12.5°C 47.1°F8.4°C 76% 6.9 mph E11.1 kmh E 13.8 mph22.2 kmh 30.16 in1021.3 mb - 0.00 in0.0 mm 0.00 in0.0 mm
12:00 AM 54.8°F12.7°C 47.7°F8.7°C 77% 6.9 mph E11.1 kmh E 10.4 mph16.7 kmh 30.16 in1021.3 mb - 0.00 in0.0 mm 0.00 in0.0 mm